sensor_id;sensor_type;location;lat;lon;timestamp;P1;durP1;ratioP1;P2;durP2;ratioP2
80681;SDS011;70045;40.200;44.582;2023-05-20T00:02:07;15.27;;;5.20;;
80681;SDS011;70045;40.200;44.582;2023-05-20T00:04:32;11.00;;;4.50;;
80681;SDS011;70045;40.200;44.582;2023-05-20T00:07:07;11.77;;;4.55;;
80681;SDS011;70045;40.200;44.582;2023-05-20T00:09:32;7.13;;;3.42;;
80681;SDS011;70045;40.200;44.582;2023-05-20T00:11:58;9.23;;;3.95;;
80681;SDS011;70045;40.200;44.582;2023-05-20T00:14:23;12.93;;;5.03;;
80681;SDS011;70045;40.200;44.582;2023-05-20T00:16:48;12.43;;;5.00;;
80681;SDS011;70045;40.200;44.582;2023-05-20T00:19:18;18.70;;;4.80;;
80681;SDS011;70045;40.200;44.582;2023-05-20T00:21:43;12.25;;;4.43;;
80681;SDS011;70045;40.200;44.582;2023-05-20T00:24:08;10.57;;;4.72;;
80681;SDS011;70045;40.200;44.582;2023-05-20T00:26:34;11.70;;;4.35;;
80681;SDS011;70045;40.200;44.582;2023-05-20T00:28:59;12.57;;;4.55;;
80681;SDS011;70045;40.200;44.582;2023-05-20T00:31:34;16.02;;;4.13;;
80681;SDS011;70045;40.200;44.582;2023-05-20T00:33:59;15.75;;;4.18;;
80681;SDS011;70045;40.200;44.582;2023-05-20T00:36:25;11.25;;;3.78;;
80681;SDS011;70045;40.200;44.582;2023-05-20T00:38:50;9.27;;;4.03;;
80681;SDS011;70045;40.200;44.582;2023-05-20T00:41:15;15.40;;;5.82;;
80681;SDS011;70045;40.200;44.582;2023-05-20T00:43:45;12.80;;;4.53;;
80681;SDS011;70045;40.200;44.582;2023-05-20T00:46:10;13.07;;;4.28;;
80681;SDS011;70045;40.200;44.582;2023-05-20T00:48:40;10.57;;;4.00;;
80681;SDS011;70045;40.200;44.582;2023-05-20T00:51:07;12.65;;;4.32;;
80681;SDS011;70045;40.200;44.582;2023-05-20T00:53:33;14.15;;;5.15;;
80681;SDS011;70045;40.200;44.582;2023-05-20T00:56:04;13.63;;;5.78;;
80681;SDS011;70045;40.200;44.582;2023-05-20T00:58:30;18.00;;;5.50;;
80681;SDS011;70045;40.200;44.582;2023-05-20T01:00:56;8.60;;;4.18;;
80681;SDS011;70045;40.200;44.582;2023-05-20T01:03:21;9.35;;;4.20;;
80681;SDS011;70045;40.200;44.582;2023-05-20T01:05:46;10.05;;;4.22;;
80681;SDS011;70045;40.200;44.582;2023-05-20T01:08:16;11.02;;;4.93;;
80681;SDS011;70045;40.200;44.582;2023-05-20T01:10:41;11.95;;;4.10;;
80681;SDS011;70045;40.200;44.582;2023-05-20T01:13:12;10.93;;;3.90;;
80681;SDS011;70045;40.200;44.582;2023-05-20T01:15:41;9.90;;;3.92;;
80681;SDS011;70045;40.200;44.582;2023-05-20T01:18:10;7.85;;;3.33;;
80681;SDS011;70045;40.200;44.582;2023-05-20T01:20:41;10.32;;;3.58;;
80681;SDS011;70045;40.200;44.582;2023-05-20T01:23:07;10.15;;;3.67;;
80681;SDS011;70045;40.200;44.582;2023-05-20T01:25:33;9.98;;;3.58;;
80681;SDS011;70045;40.200;44.582;2023-05-20T01:27:58;11.10;;;3.65;;
80681;SDS011;70045;40.200;44.582;2023-05-20T01:30:28;10.00;;;3.50;;
80681;SDS011;70045;40.200;44.582;2023-05-20T01:33:06;9.07;;;3.88;;
80681;SDS011;70045;40.200;44.582;2023-05-20T01:35:34;12.02;;;4.00;;
80681;SDS011;70045;40.200;44.582;2023-05-20T01:38:00;8.25;;;3.50;;
80681;SDS011;70045;40.200;44.582;2023-05-20T01:40:28;13.25;;;3.75;;
80681;SDS011;70045;40.200;44.582;2023-05-20T01:42:54;9.38;;;3.33;;
80681;SDS011;70045;40.200;44.582;2023-05-20T01:45:24;9.15;;;3.90;;
80681;SDS011;70045;40.200;44.582;2023-05-20T01:47:50;9.25;;;3.60;;
80681;SDS011;70045;40.200;44.582;2023-05-20T01:50:15;10.10;;;3.45;;
80681;SDS011;70045;40.200;44.582;2023-05-20T01:52:41;8.52;;;3.60;;
80681;SDS011;70045;40.200;44.582;2023-05-20T01:55:06;12.75;;;3.53;;
80681;SDS011;70045;40.200;44.582;2023-05-20T01:57:37;13.95;;;3.78;;
80681;SDS011;70045;40.200;44.582;2023-05-20T02:02:27;10.35;;;3.60;;
80681;SDS011;70045;40.200;44.582;2023-05-20T02:04:53;8.05;;;4.45;;
80681;SDS011;70045;40.200;44.582;2023-05-20T02:07:18;9.10;;;3.55;;
80681;SDS011;70045;40.200;44.582;2023-05-20T02:09:48;13.35;;;4.85;;
80681;SDS011;70045;40.200;44.582;2023-05-20T02:12:14;12.82;;;5.13;;
80681;SDS011;70045;40.200;44.582;2023-05-20T02:14:39;10.45;;;4.30;;
80681;SDS011;70045;40.200;44.582;2023-05-20T02:17:05;12.85;;;4.90;;
80681;SDS011;70045;40.200;44.582;2023-05-20T02:19:30;12.27;;;4.22;;
80681;SDS011;70045;40.200;44.582;2023-05-20T02:22:00;13.23;;;4.60;;
80681;SDS011;70045;40.200;44.582;2023-05-20T02:24:25;15.15;;;4.68;;
80681;SDS011;70045;40.200;44.582;2023-05-20T02:26:51;14.93;;;5.13;;
80681;SDS011;70045;40.200;44.582;2023-05-20T02:29:16;17.48;;;5.68;;
80681;SDS011;70045;40.200;44.582;2023-05-20T02:31:41;14.90;;;5.00;;
80681;SDS011;70045;40.200;44.582;2023-05-20T02:34:11;15.15;;;5.30;;
80681;SDS011;70045;40.200;44.582;2023-05-20T02:36:36;15.20;;;4.78;;
80681;SDS011;70045;40.200;44.582;2023-05-20T02:39:01;9.63;;;4.63;;
80681;SDS011;70045;40.200;44.582;2023-05-20T02:41:27;15.48;;;5.60;;
80681;SDS011;70045;40.200;44.582;2023-05-20T02:43:52;16.20;;;5.93;;
80681;SDS011;70045;40.200;44.582;2023-05-20T02:46:21;14.65;;;6.40;;
80681;SDS011;70045;40.200;44.582;2023-05-20T02:48:46;18.75;;;5.85;;
80681;SDS011;70045;40.200;44.582;2023-05-20T02:51:12;11.15;;;4.28;;
80681;SDS011;70045;40.200;44.582;2023-05-20T02:53:37;12.55;;;4.88;;
80681;SDS011;70045;40.200;44.582;2023-05-20T02:56:02;16.83;;;5.07;;
80681;SDS011;70045;40.200;44.582;2023-05-20T02:58:32;12.25;;;4.65;;
80681;SDS011;70045;40.200;44.582;2023-05-20T03:00:58;14.30;;;4.90;;
80681;SDS011;70045;40.200;44.582;2023-05-20T03:03:26;11.65;;;4.45;;
80681;SDS011;70045;40.200;44.582;2023-05-20T03:05:51;11.10;;;4.20;;
80681;SDS011;70045;40.200;44.582;2023-05-20T03:08:18;16.02;;;4.78;;
80681;SDS011;70045;40.200;44.582;2023-05-20T03:10:48;17.02;;;5.10;;
80681;SDS011;70045;40.200;44.582;2023-05-20T03:13:14;11.77;;;4.10;;
80681;SDS011;70045;40.200;44.582;2023-05-20T03:15:40;15.95;;;4.90;;
80681;SDS011;70045;40.200;44.582;2023-05-20T03:18:06;12.70;;;4.28;;
80681;SDS011;70045;40.200;44.582;2023-05-20T03:20:31;10.50;;;4.05;;
80681;SDS011;70045;40.200;44.582;2023-05-20T03:23:03;13.75;;;4.80;;
80681;SDS011;70045;40.200;44.582;2023-05-20T03:25:29;17.45;;;4.80;;
80681;SDS011;70045;40.200;44.582;2023-05-20T03:27:54;12.98;;;3.78;;
80681;SDS011;70045;40.200;44.582;2023-05-20T03:30:20;14.65;;;4.60;;
80681;SDS011;70045;40.200;44.582;2023-05-20T03:32:45;13.32;;;4.70;;
80681;SDS011;70045;40.200;44.582;2023-05-20T03:35:14;13.05;;;4.60;;
80681;SDS011;70045;40.200;44.582;2023-05-20T03:37:40;11.02;;;4.35;;
80681;SDS011;70045;40.200;44.582;2023-05-20T03:40:06;10.48;;;4.70;;
80681;SDS011;70045;40.200;44.582;2023-05-20T03:42:32;12.52;;;4.70;;
80681;SDS011;70045;40.200;44.582;2023-05-20T03:44:57;18.75;;;5.38;;
80681;SDS011;70045;40.200;44.582;2023-05-20T03:47:29;12.52;;;5.00;;
80681;SDS011;70045;40.200;44.582;2023-05-20T03:49:54;16.23;;;5.80;;
80681;SDS011;70045;40.200;44.582;2023-05-20T03:52:19;12.55;;;4.45;;
80681;SDS011;70045;40.200;44.582;2023-05-20T03:54:45;12.05;;;4.10;;
80681;SDS011;70045;40.200;44.582;2023-05-20T03:57:10;12.10;;;4.53;;
80681;SDS011;70045;40.200;44.582;2023-05-20T03:59:42;13.60;;;4.05;;
80681;SDS011;70045;40.200;44.582;2023-05-20T04:02:08;17.58;;;3.90;;
80681;SDS011;70045;40.200;44.582;2023-05-20T04:04:33;13.15;;;4.05;;
80681;SDS011;70045;40.200;44.582;2023-05-20T04:06:58;8.93;;;3.63;;
80681;SDS011;70045;40.200;44.582;2023-05-20T04:09:24;8.95;;;3.65;;
80681;SDS011;70045;40.200;44.582;2023-05-20T04:11:59;11.10;;;3.83;;
80681;SDS011;70045;40.200;44.582;2023-05-20T04:14:24;11.60;;;3.65;;
80681;SDS011;70045;40.200;44.582;2023-05-20T04:16:50;9.73;;;3.13;;
80681;SDS011;70045;40.200;44.582;2023-05-20T04:19:15;9.93;;;3.33;;
80681;SDS011;70045;40.200;44.582;2023-05-20T04:21:41;14.13;;;5.13;;
80681;SDS011;70045;40.200;44.582;2023-05-20T04:24:16;15.25;;;5.43;;
80681;SDS011;70045;40.200;44.582;2023-05-20T04:26:41;18.23;;;5.63;;
80681;SDS011;70045;40.200;44.582;2023-05-20T04:29:06;16.15;;;6.10;;
80681;SDS011;70045;40.200;44.582;2023-05-20T04:31:32;18.55;;;5.78;;
80681;SDS011;70045;40.200;44.582;2023-05-20T04:33:57;13.75;;;5.60;;
80681;SDS011;70045;40.200;44.582;2023-05-20T04:36:27;16.58;;;5.35;;
80681;SDS011;70045;40.200;44.582;2023-05-20T04:38:52;17.42;;;5.88;;
80681;SDS011;70045;40.200;44.582;2023-05-20T04:41:18;18.88;;;5.78;;
80681;SDS011;70045;40.200;44.582;2023-05-20T04:43:43;20.15;;;6.30;;
80681;SDS011;70045;40.200;44.582;2023-05-20T04:46:08;19.20;;;6.63;;
80681;SDS011;70045;40.200;44.582;2023-05-20T04:48:40;20.10;;;7.25;;
80681;SDS011;70045;40.200;44.582;2023-05-20T04:51:05;23.30;;;7.20;;
80681;SDS011;70045;40.200;44.582;2023-05-20T04:53:31;14.32;;;6.22;;
80681;SDS011;70045;40.200;44.582;2023-05-20T04:55:56;20.13;;;6.00;;
80681;SDS011;70045;40.200;44.582;2023-05-20T04:58:22;15.30;;;5.35;;
80681;SDS011;70045;40.200;44.582;2023-05-20T05:00:57;14.13;;;4.35;;
80681;SDS011;70045;40.200;44.582;2023-05-20T05:03:22;13.32;;;4.28;;
80681;SDS011;70045;40.200;44.582;2023-05-20T05:05:47;13.82;;;4.05;;
80681;SDS011;70045;40.200;44.582;2023-05-20T05:08:13;15.50;;;3.92;;
80681;SDS011;70045;40.200;44.582;2023-05-20T05:10:38;15.43;;;4.30;;
80681;SDS011;70045;40.200;44.582;2023-05-20T05:13:09;15.07;;;4.35;;
80681;SDS011;70045;40.200;44.582;2023-05-20T05:15:35;18.48;;;4.57;;
80681;SDS011;70045;40.200;44.582;2023-05-20T05:18:00;11.85;;;3.92;;
80681;SDS011;70045;40.200;44.582;2023-05-20T05:20:26;13.93;;;5.00;;
80681;SDS011;70045;40.200;44.582;2023-05-20T05:22:51;17.40;;;4.90;;
80681;SDS011;70045;40.200;44.582;2023-05-20T05:25:23;16.40;;;5.25;;
80681;SDS011;70045;40.200;44.582;2023-05-20T05:27:48;17.35;;;5.43;;
80681;SDS011;70045;40.200;44.582;2023-05-20T05:30:14;11.48;;;4.63;;
80681;SDS011;70045;40.200;44.582;2023-05-20T05:32:39;15.55;;;4.80;;
80681;SDS011;70045;40.200;44.582;2023-05-20T05:35:05;15.52;;;5.53;;
80681;SDS011;70045;40.200;44.582;2023-05-20T05:37:40;15.75;;;4.78;;
80681;SDS011;70045;40.200;44.582;2023-05-20T05:40:05;11.40;;;4.65;;
80681;SDS011;70045;40.200;44.582;2023-05-20T05:42:32;15.18;;;5.15;;
80681;SDS011;70045;40.200;44.582;2023-05-20T05:44:58;14.63;;;5.00;;
80681;SDS011;70045;40.200;44.582;2023-05-20T05:47:23;20.48;;;5.60;;
80681;SDS011;70045;40.200;44.582;2023-05-20T05:49:52;17.80;;;5.18;;
80681;SDS011;70045;40.200;44.582;2023-05-20T05:52:18;16.48;;;5.32;;
80681;SDS011;70045;40.200;44.582;2023-05-20T05:54:43;17.13;;;4.72;;
80681;SDS011;70045;40.200;44.582;2023-05-20T05:57:08;14.50;;;4.43;;
80681;SDS011;70045;40.200;44.582;2023-05-20T05:59:34;16.52;;;5.40;;
80681;SDS011;70045;40.200;44.582;2023-05-20T06:02:09;19.20;;;5.88;;
80681;SDS011;70045;40.200;44.582;2023-05-20T06:04:34;18.85;;;5.47;;
80681;SDS011;70045;40.200;44.582;2023-05-20T06:06:59;14.27;;;4.90;;
80681;SDS011;70045;40.200;44.582;2023-05-20T06:09:25;15.07;;;4.78;;
80681;SDS011;70045;40.200;44.582;2023-05-20T06:11:50;14.63;;;4.97;;
80681;SDS011;70045;40.200;44.582;2023-05-20T06:14:20;16.25;;;5.13;;
80681;SDS011;70045;40.200;44.582;2023-05-20T06:19:11;12.38;;;4.55;;
80681;SDS011;70045;40.200;44.582;2023-05-20T06:21:36;12.43;;;5.10;;
80681;SDS011;70045;40.200;44.582;2023-05-20T06:24:02;22.35;;;4.70;;
80681;SDS011;70045;40.200;44.582;2023-05-20T06:26:31;16.27;;;4.43;;
80681;SDS011;70045;40.200;44.582;2023-05-20T06:28:56;11.68;;;4.40;;
80681;SDS011;70045;40.200;44.582;2023-05-20T06:31:22;15.25;;;4.63;;
80681;SDS011;70045;40.200;44.582;2023-05-20T06:33:47;14.45;;;4.43;;
80681;SDS011;70045;40.200;44.582;2023-05-20T06:36:13;15.30;;;4.70;;
80681;SDS011;70045;40.200;44.582;2023-05-20T06:38:42;14.73;;;4.60;;
80681;SDS011;70045;40.200;44.582;2023-05-20T06:41:08;19.15;;;4.90;;
80681;SDS011;70045;40.200;44.582;2023-05-20T06:43:33;11.77;;;3.80;;
80681;SDS011;70045;40.200;44.582;2023-05-20T06:45:59;16.80;;;5.78;;
80681;SDS011;70045;40.200;44.582;2023-05-20T06:48:24;15.70;;;5.43;;
80681;SDS011;70045;40.200;44.582;2023-05-20T06:50:53;16.50;;;4.70;;
80681;SDS011;70045;40.200;44.582;2023-05-20T06:53:18;17.27;;;4.88;;
80681;SDS011;70045;40.200;44.582;2023-05-20T06:55:44;17.63;;;5.28;;
80681;SDS011;70045;40.200;44.582;2023-05-20T06:58:09;16.08;;;4.63;;
80681;SDS011;70045;40.200;44.582;2023-05-20T07:00:34;14.80;;;4.60;;
80681;SDS011;70045;40.200;44.582;2023-05-20T07:03:05;17.10;;;4.60;;
80681;SDS011;70045;40.200;44.582;2023-05-20T07:05:31;20.88;;;5.00;;
80681;SDS011;70045;40.200;44.582;2023-05-20T07:07:56;18.38;;;5.03;;
80681;SDS011;70045;40.200;44.582;2023-05-20T07:10:21;19.85;;;4.88;;
80681;SDS011;70045;40.200;44.582;2023-05-20T07:12:47;18.40;;;3.42;;
80681;SDS011;70045;40.200;44.582;2023-05-20T07:15:17;9.98;;;2.72;;
80681;SDS011;70045;40.200;44.582;2023-05-20T07:17:43;10.65;;;2.38;;
80681;SDS011;70045;40.200;44.582;2023-05-20T07:20:08;13.32;;;2.20;;
80681;SDS011;70045;40.200;44.582;2023-05-20T07:22:34;15.93;;;3.22;;
80681;SDS011;70045;40.200;44.582;2023-05-20T07:24:59;14.18;;;2.55;;
80681;SDS011;70045;40.200;44.582;2023-05-20T07:27:28;14.57;;;2.67;;
80681;SDS011;70045;40.200;44.582;2023-05-20T07:29:54;10.98;;;2.65;;
80681;SDS011;70045;40.200;44.582;2023-05-20T07:32:19;17.95;;;2.88;;
80681;SDS011;70045;40.200;44.582;2023-05-20T07:34:44;12.50;;;3.15;;
80681;SDS011;70045;40.200;44.582;2023-05-20T07:37:10;11.35;;;2.55;;
80681;SDS011;70045;40.200;44.582;2023-05-20T07:39:40;8.93;;;2.42;;
80681;SDS011;70045;40.200;44.582;2023-05-20T07:42:06;9.90;;;2.30;;
80681;SDS011;70045;40.200;44.582;2023-05-20T07:44:31;11.68;;;2.50;;
80681;SDS011;70045;40.200;44.582;2023-05-20T07:46:57;13.75;;;2.28;;
80681;SDS011;70045;40.200;44.582;2023-05-20T07:49:22;10.73;;;2.00;;
80681;SDS011;70045;40.200;44.582;2023-05-20T07:51:51;9.23;;;2.20;;
80681;SDS011;70045;40.200;44.582;2023-05-20T07:54:17;9.75;;;2.30;;
80681;SDS011;70045;40.200;44.582;2023-05-20T07:56:42;12.02;;;2.70;;
80681;SDS011;70045;40.200;44.582;2023-05-20T07:59:08;10.10;;;2.10;;
80681;SDS011;70045;40.200;44.582;2023-05-20T08:01:33;11.50;;;2.28;;
80681;SDS011;70045;40.200;44.582;2023-05-20T08:04:02;9.57;;;2.00;;
80681;SDS011;70045;40.200;44.582;2023-05-20T08:06:28;10.32;;;2.38;;
80681;SDS011;70045;40.200;44.582;2023-05-20T08:08:53;9.85;;;2.15;;
80681;SDS011;70045;40.200;44.582;2023-05-20T08:11:19;7.68;;;2.45;;
80681;SDS011;70045;40.200;44.582;2023-05-20T08:13:45;12.25;;;2.33;;
80681;SDS011;70045;40.200;44.582;2023-05-20T08:16:19;7.85;;;2.25;;
80681;SDS011;70045;40.200;44.582;2023-05-20T08:18:45;7.72;;;2.30;;
80681;SDS011;70045;40.200;44.582;2023-05-20T08:21:11;12.65;;;2.67;;
80681;SDS011;70045;40.200;44.582;2023-05-20T08:23:36;6.88;;;2.15;;
80681;SDS011;70045;40.200;44.582;2023-05-20T08:26:02;9.63;;;2.00;;
80681;SDS011;70045;40.200;44.582;2023-05-20T08:28:31;10.13;;;2.40;;
80681;SDS011;70045;40.200;44.582;2023-05-20T08:30:56;8.05;;;2.50;;
80681;SDS011;70045;40.200;44.582;2023-05-20T08:33:22;3.92;;;1.80;;
80681;SDS011;70045;40.200;44.582;2023-05-20T08:35:48;8.38;;;2.38;;
80681;SDS011;70045;40.200;44.582;2023-05-20T08:38:13;8.77;;;2.40;;
80681;SDS011;70045;40.200;44.582;2023-05-20T08:40:42;6.15;;;1.92;;
80681;SDS011;70045;40.200;44.582;2023-05-20T08:43:08;14.38;;;2.20;;
80681;SDS011;70045;40.200;44.582;2023-05-20T08:45:35;8.48;;;2.25;;
80681;SDS011;70045;40.200;44.582;2023-05-20T08:48:02;7.75;;;2.38;;
80681;SDS011;70045;40.200;44.582;2023-05-20T08:50:28;8.55;;;2.03;;
80681;SDS011;70045;40.200;44.582;2023-05-20T08:52:58;8.77;;;2.70;;
80681;SDS011;70045;40.200;44.582;2023-05-20T08:55:25;5.88;;;2.20;;
80681;SDS011;70045;40.200;44.582;2023-05-20T08:57:50;11.75;;;2.78;;
80681;SDS011;70045;40.200;44.582;2023-05-20T09:00:16;12.88;;;3.10;;
80681;SDS011;70045;40.200;44.582;2023-05-20T09:02:44;11.68;;;2.75;;
80681;SDS011;70045;40.200;44.582;2023-05-20T09:05:19;17.17;;;4.03;;
80681;SDS011;70045;40.200;44.582;2023-05-20T09:07:44;9.95;;;3.85;;
80681;SDS011;70045;40.200;44.582;2023-05-20T09:10:09;9.38;;;2.88;;
80681;SDS011;70045;40.200;44.582;2023-05-20T09:12:35;15.13;;;3.22;;
80681;SDS011;70045;40.200;44.582;2023-05-20T09:15:01;14.25;;;3.75;;
80681;SDS011;70045;40.200;44.582;2023-05-20T09:17:35;19.05;;;4.47;;
80681;SDS011;70045;40.200;44.582;2023-05-20T09:20:05;13.95;;;3.05;;
80681;SDS011;70045;40.200;44.582;2023-05-20T09:22:34;11.82;;;2.90;;
80681;SDS011;70045;40.200;44.582;2023-05-20T09:25:00;16.58;;;3.80;;
80681;SDS011;70045;40.200;44.582;2023-05-20T09:27:26;14.73;;;3.30;;
80681;SDS011;70045;40.200;44.582;2023-05-20T09:29:54;15.68;;;3.45;;
80681;SDS011;70045;40.200;44.582;2023-05-20T09:32:20;21.58;;;4.05;;
80681;SDS011;70045;40.200;44.582;2023-05-20T09:34:46;11.35;;;3.65;;
80681;SDS011;70045;40.200;44.582;2023-05-20T09:37:11;16.42;;;4.07;;
80681;SDS011;70045;40.200;44.582;2023-05-20T09:39:43;10.10;;;3.33;;
80681;SDS011;70045;40.200;44.582;2023-05-20T09:42:42;11.02;;;3.58;;
80681;SDS011;70045;40.200;44.582;2023-05-20T09:45:15;12.57;;;3.47;;
80681;SDS011;70045;40.200;44.582;2023-05-20T09:47:41;13.43;;;4.00;;
80681;SDS011;70045;40.200;44.582;2023-05-20T09:50:07;11.52;;;4.05;;
80681;SDS011;70045;40.200;44.582;2023-05-20T09:52:38;19.30;;;4.50;;
80681;SDS011;70045;40.200;44.582;2023-05-20T09:55:04;12.77;;;4.60;;
80681;SDS011;70045;40.200;44.582;2023-05-20T09:57:33;15.60;;;4.15;;
80681;SDS011;70045;40.200;44.582;2023-05-20T09:59:59;16.20;;;4.20;;
80681;SDS011;70045;40.200;44.582;2023-05-20T10:02:26;20.13;;;4.35;;
80681;SDS011;70045;40.200;44.582;2023-05-20T10:04:58;11.80;;;4.15;;
80681;SDS011;70045;40.200;44.582;2023-05-20T10:15:44;13.05;;;4.57;;
80681;SDS011;70045;40.200;44.582;2023-05-20T10:21:16;12.55;;;4.38;;
80681;SDS011;70045;40.200;44.582;2023-05-20T10:23:49;11.90;;;4.00;;
80681;SDS011;70045;40.200;44.582;2023-05-20T10:26:33;12.65;;;4.57;;
80681;SDS011;70045;40.200;44.582;2023-05-20T10:29:01;11.88;;;4.43;;
80681;SDS011;70045;40.200;44.582;2023-05-20T10:31:43;11.93;;;3.58;;
80681;SDS011;70045;40.200;44.582;2023-05-20T10:34:15;10.02;;;2.70;;
80681;SDS011;70045;40.200;44.582;2023-05-20T10:39:29;5.60;;;2.17;;
80681;SDS011;70045;40.200;44.582;2023-05-20T10:42:08;6.60;;;2.35;;
80681;SDS011;70045;40.200;44.582;2023-05-20T10:44:41;8.77;;;3.13;;
80681;SDS011;70045;40.200;44.582;2023-05-20T10:47:16;7.97;;;3.00;;
80681;SDS011;70045;40.200;44.582;2023-05-20T10:49:44;10.00;;;3.60;;
80681;SDS011;70045;40.200;44.582;2023-05-20T10:52:10;10.80;;;3.85;;
80681;SDS011;70045;40.200;44.582;2023-05-20T10:54:47;11.05;;;3.88;;
80681;SDS011;70045;40.200;44.582;2023-05-20T10:57:26;10.20;;;4.05;;
80681;SDS011;70045;40.200;44.582;2023-05-20T10:59:52;12.95;;;4.20;;
80681;SDS011;70045;40.200;44.582;2023-05-20T11:02:19;14.27;;;4.47;;
80681;SDS011;70045;40.200;44.582;2023-05-20T11:04:45;15.60;;;4.78;;
80681;SDS011;70045;40.200;44.582;2023-05-20T11:07:11;14.00;;;4.72;;
80681;SDS011;70045;40.200;44.582;2023-05-20T11:09:48;11.90;;;4.05;;
80681;SDS011;70045;40.200;44.582;2023-05-20T11:12:13;13.27;;;3.65;;
80681;SDS011;70045;40.200;44.582;2023-05-20T11:14:39;11.07;;;3.63;;
80681;SDS011;70045;40.200;44.582;2023-05-20T11:17:06;15.10;;;3.90;;
80681;SDS011;70045;40.200;44.582;2023-05-20T11:19:32;10.48;;;3.67;;
80681;SDS011;70045;40.200;44.582;2023-05-20T11:22:00;13.27;;;3.42;;
80681;SDS011;70045;40.200;44.582;2023-05-20T11:24:26;11.60;;;3.92;;
80681;SDS011;70045;40.200;44.582;2023-05-20T11:26:53;13.27;;;3.67;;
80681;SDS011;70045;40.200;44.582;2023-05-20T11:29:19;14.50;;;4.22;;
80681;SDS011;70045;40.200;44.582;2023-05-20T11:31:46;17.40;;;5.00;;
80681;SDS011;70045;40.200;44.582;2023-05-20T11:34:19;12.77;;;4.85;;
80681;SDS011;70045;40.200;44.582;2023-05-20T11:36:47;12.63;;;3.85;;
80681;SDS011;70045;40.200;44.582;2023-05-20T11:39:13;10.95;;;3.80;;
80681;SDS011;70045;40.200;44.582;2023-05-20T11:41:40;11.88;;;3.90;;
80681;SDS011;70045;40.200;44.582;2023-05-20T11:44:09;12.40;;;4.95;;
80681;SDS011;70045;40.200;44.582;2023-05-20T11:46:44;15.20;;;5.05;;
80681;SDS011;70045;40.200;44.582;2023-05-20T11:49:14;16.67;;;5.22;;
80681;SDS011;70045;40.200;44.582;2023-05-20T11:51:40;17.20;;;5.72;;
80681;SDS011;70045;40.200;44.582;2023-05-20T11:54:06;13.05;;;5.22;;
80681;SDS011;70045;40.200;44.582;2023-05-20T11:56:32;16.35;;;5.38;;
80681;SDS011;70045;40.200;44.582;2023-05-20T11:59:07;15.35;;;4.25;;
80681;SDS011;70045;40.200;44.582;2023-05-20T12:01:37;14.25;;;4.70;;
80681;SDS011;70045;40.200;44.582;2023-05-20T12:04:03;16.38;;;6.18;;
80681;SDS011;70045;40.200;44.582;2023-05-20T12:06:29;19.77;;;7.03;;
80681;SDS011;70045;40.200;44.582;2023-05-20T12:08:55;17.38;;;6.03;;
80681;SDS011;70045;40.200;44.582;2023-05-20T12:11:25;13.05;;;5.38;;
80681;SDS011;70045;40.200;44.582;2023-05-20T12:13:50;16.67;;;6.25;;
80681;SDS011;70045;40.200;44.582;2023-05-20T12:16:16;18.45;;;5.88;;
80681;SDS011;70045;40.200;44.582;2023-05-20T12:18:41;14.13;;;5.28;;
80681;SDS011;70045;40.200;44.582;2023-05-20T12:21:06;14.10;;;4.40;;
80681;SDS011;70045;40.200;44.582;2023-05-20T12:23:37;16.65;;;5.63;;
80681;SDS011;70045;40.200;44.582;2023-05-20T12:26:02;13.02;;;4.82;;
80681;SDS011;70045;40.200;44.582;2023-05-20T12:28:27;14.52;;;5.88;;
80681;SDS011;70045;40.200;44.582;2023-05-20T12:30:53;14.48;;;6.20;;
80681;SDS011;70045;40.200;44.582;2023-05-20T12:33:18;16.02;;;4.88;;
80681;SDS011;70045;40.200;44.582;2023-05-20T12:35:48;14.15;;;6.10;;
80681;SDS011;70045;40.200;44.582;2023-05-20T12:38:14;8.48;;;3.50;;
80681;SDS011;70045;40.200;44.582;2023-05-20T12:40:39;4.90;;;1.80;;
80681;SDS011;70045;40.200;44.582;2023-05-20T12:43:05;2.28;;;1.13;;
80681;SDS011;70045;40.200;44.582;2023-05-20T12:45:30;14.50;;;4.97;;
80681;SDS011;70045;40.200;44.582;2023-05-20T12:47:58;19.30;;;6.05;;
80681;SDS011;70045;40.200;44.582;2023-05-20T12:50:24;16.25;;;6.63;;
80681;SDS011;70045;40.200;44.582;2023-05-20T12:52:50;19.20;;;6.10;;
80681;SDS011;70045;40.200;44.582;2023-05-20T12:55:15;18.55;;;6.40;;
80681;SDS011;70045;40.200;44.582;2023-05-20T12:57:43;16.63;;;6.18;;
80681;SDS011;70045;40.200;44.582;2023-05-20T13:00:13;20.83;;;6.15;;
80681;SDS011;70045;40.200;44.582;2023-05-20T13:02:40;16.58;;;6.15;;
80681;SDS011;70045;40.200;44.582;2023-05-20T13:05:06;21.60;;;7.10;;
80681;SDS011;70045;40.200;44.582;2023-05-20T13:07:32;34.78;;;7.63;;
80681;SDS011;70045;40.200;44.582;2023-05-20T13:09:57;18.52;;;7.55;;
80681;SDS011;70045;40.200;44.582;2023-05-20T13:12:27;26.20;;;8.48;;
80681;SDS011;70045;40.200;44.582;2023-05-20T13:14:53;21.95;;;8.07;;
80681;SDS011;70045;40.200;44.582;2023-05-20T13:17:19;24.70;;;8.55;;
80681;SDS011;70045;40.200;44.582;2023-05-20T13:19:44;23.60;;;8.10;;
80681;SDS011;70045;40.200;44.582;2023-05-20T13:22:10;19.60;;;6.93;;
80681;SDS011;70045;40.200;44.582;2023-05-20T13:24:39;19.35;;;6.70;;
80681;SDS011;70045;40.200;44.582;2023-05-20T13:27:04;19.23;;;6.45;;
80681;SDS011;70045;40.200;44.582;2023-05-20T13:29:30;24.27;;;6.82;;
80681;SDS011;70045;40.200;44.582;2023-05-20T13:34:25;16.90;;;6.33;;
80681;SDS011;70045;40.200;44.582;2023-05-20T13:36:55;18.75;;;7.03;;
80681;SDS011;70045;40.200;44.582;2023-05-20T13:39:20;21.08;;;8.50;;
80681;SDS011;70045;40.200;44.582;2023-05-20T13:41:46;26.38;;;8.80;;
80681;SDS011;70045;40.200;44.582;2023-05-20T13:44:11;26.33;;;8.85;;
80681;SDS011;70045;40.200;44.582;2023-05-20T13:46:37;18.10;;;7.15;;
80681;SDS011;70045;40.200;44.582;2023-05-20T13:49:11;29.30;;;10.57;;
80681;SDS011;70045;40.200;44.582;2023-05-20T13:51:39;14.40;;;4.95;;
80681;SDS011;70045;40.200;44.582;2023-05-20T13:54:05;11.82;;;3.35;;
80681;SDS011;70045;40.200;44.582;2023-05-20T13:56:30;4.30;;;2.00;;
80681;SDS011;70045;40.200;44.582;2023-05-20T13:58:56;3.00;;;1.25;;
80681;SDS011;70045;40.200;44.582;2023-05-20T14:01:26;3.58;;;1.40;;
80681;SDS011;70045;40.200;44.582;2023-05-20T14:03:52;2.58;;;0.93;;
80681;SDS011;70045;40.200;44.582;2023-05-20T14:06:17;3.97;;;1.17;;
80681;SDS011;70045;40.200;44.582;2023-05-20T14:08:43;2.75;;;1.25;;
80681;SDS011;70045;40.200;44.582;2023-05-20T14:11:09;2.22;;;1.10;;
80681;SDS011;70045;40.200;44.582;2023-05-20T14:13:39;2.67;;;1.10;;
80681;SDS011;70045;40.200;44.582;2023-05-20T14:16:05;2.95;;;1.20;;
80681;SDS011;70045;40.200;44.582;2023-05-20T14:18:31;3.00;;;0.90;;
80681;SDS011;70045;40.200;44.582;2023-05-20T14:20:56;3.13;;;1.00;;
80681;SDS011;70045;40.200;44.582;2023-05-20T14:23:22;2.95;;;1.20;;
80681;SDS011;70045;40.200;44.582;2023-05-20T14:25:51;1.67;;;0.90;;
80681;SDS011;70045;40.200;44.582;2023-05-20T14:28:16;2.65;;;1.10;;
80681;SDS011;70045;40.200;44.582;2023-05-20T14:30:42;7.82;;;1.65;;
80681;SDS011;70045;40.200;44.582;2023-05-20T14:33:07;2.15;;;1.08;;
80681;SDS011;70045;40.200;44.582;2023-05-20T14:35:33;2.25;;;0.90;;
80681;SDS011;70045;40.200;44.582;2023-05-20T14:38:02;5.82;;;1.77;;
80681;SDS011;70045;40.200;44.582;2023-05-20T14:40:27;6.10;;;1.67;;
80681;SDS011;70045;40.200;44.582;2023-05-20T14:42:53;3.42;;;1.20;;
80681;SDS011;70045;40.200;44.582;2023-05-20T14:45:18;3.03;;;1.45;;